createdAt,value
2022-09-24T00:02:12.520Z,7.32
2022-09-24T00:04:40.728Z,7.63
2022-09-24T00:07:09.996Z,7.43
2022-09-24T00:09:38.324Z,7.22
2022-09-24T00:12:06.253Z,8.73
2022-09-24T00:14:34.211Z,8.95
2022-09-24T00:17:02.208Z,8.38
2022-09-24T00:19:30.280Z,8.60
2022-09-24T00:21:58.215Z,7.72
2022-09-24T00:24:45.002Z,8.88
2022-09-24T00:27:12.935Z,7.15
2022-09-24T00:29:41.170Z,8.82
2022-09-24T00:32:10.419Z,8.23
2022-09-24T00:34:38.555Z,7.65
2022-09-24T00:37:06.475Z,7.53
2022-09-24T00:39:35.904Z,8.95
2022-09-24T00:42:03.969Z,9.30
2022-09-24T00:44:53.744Z,8.10
2022-09-24T00:47:43.336Z,9.43
2022-09-24T00:50:19.076Z,8.52
2022-09-24T00:55:20.947Z,7.47
2022-09-24T00:57:52.035Z,7.25
2022-09-24T01:00:20.368Z,7.40
2022-09-24T01:02:51.388Z,7.20
2022-09-24T01:05:19.593Z,6.85
2022-09-24T01:07:48.251Z,8.15
2022-09-24T01:10:39.197Z,8.55
2022-09-24T01:13:18.815Z,7.10
2022-09-24T01:15:54.567Z,7.72
2022-09-24T01:21:14.834Z,10.02
2022-09-24T01:24:02.435Z,9.15
2022-09-24T01:26:49.092Z,8.65
2022-09-24T01:29:42.040Z,7.18
2022-09-24T01:32:17.972Z,8.43
2022-09-24T01:37:19.668Z,7.65
2022-09-24T01:39:48.523Z,7.30
2022-09-24T01:42:18.224Z,6.63
2022-09-24T01:44:49.118Z,7.13
2022-09-24T01:47:34.373Z,7.68
2022-09-24T01:50:04.165Z,8.40
2022-09-24T01:52:36.594Z,6.78
2022-09-24T01:55:08.566Z,8.20
2022-09-24T01:57:41.354Z,7.82
2022-09-24T02:00:14.470Z,8.32
2022-09-24T02:02:47.098Z,7.28
2022-09-24T02:05:21.202Z,7.43
2022-09-24T02:07:58.457Z,7.97
2022-09-24T02:10:29.999Z,7.43
2022-09-24T02:13:04.094Z,6.93
2022-09-24T02:15:35.741Z,8.10
2022-09-24T02:18:07.079Z,6.97
2022-09-24T02:20:37.433Z,8.65
2022-09-24T02:23:07.292Z,7.60
2022-09-24T02:25:40.491Z,7.57
2022-09-24T02:28:08.604Z,7.63
2022-09-24T02:30:42.859Z,8.27
2022-09-24T02:33:26.798Z,7.50
2022-09-24T02:35:54.795Z,8.57
2022-09-24T02:38:23.767Z,7.07
2022-09-24T02:40:53.466Z,6.72
2022-09-24T02:43:21.473Z,7.85
2022-09-24T02:45:50.997Z,6.95
2022-09-24T02:48:19.680Z,6.20
2022-09-24T02:50:47.766Z,6.88
2022-09-24T02:53:15.644Z,5.53
2022-09-24T02:55:43.584Z,6.72
2022-09-24T02:58:11.496Z,7.00
2022-09-24T03:00:39.526Z,6.57
2022-09-24T03:03:08.864Z,8.63
2022-09-24T03:05:36.793Z,6.80
2022-09-24T03:08:04.836Z,7.35
2022-09-24T03:10:32.955Z,7.30
2022-09-24T03:13:00.867Z,6.97
2022-09-24T03:15:29.767Z,8.80
2022-09-24T03:17:57.791Z,7.85
2022-09-24T03:20:27.055Z,6.30
2022-09-24T03:22:54.986Z,7.65
2022-09-24T03:25:23.206Z,6.80
2022-09-24T03:27:51.096Z,7.00
2022-09-24T03:30:36.945Z,6.65
2022-09-24T03:33:05.016Z,5.88
2022-09-24T03:35:34.254Z,8.70
2022-09-24T03:38:02.125Z,7.22
2022-09-24T03:40:30.014Z,7.22
2022-09-24T03:42:57.918Z,7.60
2022-09-24T03:45:26.052Z,7.90
2022-09-24T03:47:53.964Z,7.03
2022-09-24T03:50:21.822Z,7.07
2022-09-24T03:52:51.049Z,6.70
2022-09-24T03:55:18.908Z,7.00
2022-09-24T03:57:46.810Z,7.35
2022-09-24T04:00:15.500Z,6.63
2022-09-24T04:02:43.577Z,6.35
2022-09-24T04:05:11.625Z,6.78
2022-09-24T04:07:39.892Z,8.20
2022-09-24T04:10:10.400Z,7.22
2022-09-24T04:12:38.780Z,8.38
2022-09-24T04:15:07.595Z,5.70
2022-09-24T04:17:35.687Z,7.22
2022-09-24T04:20:03.732Z,6.57
2022-09-24T04:22:31.643Z,9.15
2022-09-24T04:24:59.700Z,7.50
2022-09-24T04:27:28.945Z,8.52
2022-09-24T04:29:56.864Z,7.78
2022-09-24T04:32:24.722Z,7.20
2022-09-24T04:34:52.614Z,8.77
2022-09-24T04:37:20.476Z,7.05
2022-09-24T04:39:48.385Z,8.55
2022-09-24T04:42:19.558Z,7.22
2022-09-24T04:44:51.709Z,7.70
2022-09-24T04:47:25.965Z,8.38
2022-09-24T04:49:53.842Z,8.70
2022-09-24T04:52:29.752Z,7.68
2022-09-24T04:54:58.062Z,7.72
2022-09-24T04:57:25.972Z,8.05
2022-09-24T04:59:55.357Z,7.57
2022-09-24T05:02:24.214Z,9.20
2022-09-24T05:04:52.179Z,8.60
2022-09-24T05:07:20.073Z,8.75
2022-09-24T05:09:48.005Z,6.88
2022-09-24T05:12:15.866Z,7.68
2022-09-24T05:14:43.746Z,8.95
2022-09-24T05:17:12.960Z,8.85
2022-09-24T05:19:40.813Z,7.28
2022-09-24T05:22:08.751Z,7.65
2022-09-24T05:24:36.633Z,8.20
2022-09-24T05:27:10.023Z,8.13
2022-09-24T05:29:39.109Z,7.35
2022-09-24T05:32:08.642Z,8.88
2022-09-24T05:34:38.091Z,9.77
2022-09-24T05:37:06.281Z,8.40
2022-09-24T05:39:34.540Z,7.40
2022-09-24T05:42:04.261Z,10.07
2022-09-24T05:44:32.838Z,7.38
2022-09-24T05:47:00.871Z,7.05
2022-09-24T05:49:28.800Z,7.15
2022-09-24T05:51:58.022Z,7.93
2022-09-24T05:54:25.934Z,8.40
2022-09-24T05:56:53.879Z,7.53
2022-09-24T05:59:21.779Z,7.60
2022-09-24T06:01:50.482Z,7.90
2022-09-24T06:04:18.476Z,10.18
2022-09-24T06:06:46.409Z,7.38
2022-09-24T06:09:15.749Z,8.18
2022-09-24T06:11:43.903Z,9.35
2022-09-24T06:14:13.111Z,7.32
2022-09-24T06:16:41.087Z,7.82
2022-09-24T06:19:09.230Z,6.22
2022-09-24T06:21:37.146Z,8.95
2022-09-24T06:24:05.318Z,7.55
2022-09-24T06:26:34.631Z,7.28
2022-09-24T06:29:05.272Z,7.63
2022-09-24T06:31:34.878Z,6.82
2022-09-24T06:34:03.732Z,6.60
2022-09-24T06:36:31.659Z,5.45
2022-09-24T06:38:59.590Z,5.03
2022-09-24T06:41:27.507Z,7.22
2022-09-24T06:43:56.972Z,6.45
2022-09-24T06:46:25.880Z,5.70
2022-09-24T06:48:55.295Z,5.35
2022-09-24T06:51:23.295Z,7.43
2022-09-24T06:53:52.509Z,6.18
2022-09-24T06:56:20.634Z,7.25
2022-09-24T06:58:48.629Z,5.13
2022-09-24T07:01:18.090Z,4.38
2022-09-24T07:03:46.021Z,4.63
2022-09-24T07:06:13.974Z,4.82
2022-09-24T07:08:41.938Z,4.95
2022-09-24T07:11:10.155Z,7.30
2022-09-24T07:13:38.063Z,4.38
2022-09-24T07:16:06.348Z,5.30
2022-09-24T07:18:37.584Z,4.05
2022-09-24T07:21:05.568Z,3.88
2022-09-24T07:23:33.461Z,5.28
2022-09-24T07:26:01.357Z,4.00
2022-09-24T07:28:29.520Z,3.85
2022-09-24T07:30:59.287Z,3.22
2022-09-24T07:33:27.571Z,4.55
2022-09-24T07:35:56.877Z,4.25
2022-09-24T07:38:24.990Z,3.35
2022-09-24T07:40:58.563Z,4.22
2022-09-24T07:43:26.912Z,3.97
2022-09-24T07:45:55.844Z,4.18
2022-09-24T07:48:24.369Z,3.10
2022-09-24T07:50:52.307Z,5.85
2022-09-24T07:53:22.459Z,4.07
2022-09-24T07:55:50.878Z,4.45
2022-09-24T07:58:19.249Z,3.65
2022-09-24T08:00:47.272Z,3.13
2022-09-24T08:03:15.318Z,4.32
2022-09-24T08:05:49.308Z,4.38
2022-09-24T08:08:17.307Z,4.75
2022-09-24T08:10:46.567Z,3.58
2022-09-24T08:13:14.501Z,3.40
2022-09-24T08:15:42.575Z,8.10
2022-09-24T08:18:10.884Z,2.63
2022-09-24T08:20:39.812Z,2.83
2022-09-24T08:23:10.575Z,5.03
2022-09-24T08:25:38.714Z,9.45
2022-09-24T08:28:08.936Z,10.43
2022-09-24T08:30:37.584Z,5.82
2022-09-24T08:33:06.717Z,3.53
2022-09-24T08:35:35.239Z,4.18
2022-09-24T08:38:03.638Z,5.05
2022-09-24T08:40:35.697Z,4.70
2022-09-24T08:43:18.415Z,4.35
2022-09-24T08:46:07.832Z,4.63
2022-09-24T08:48:39.516Z,3.50
2022-09-24T08:51:13.469Z,7.70
2022-09-24T08:53:49.255Z,3.95
2022-09-24T08:56:22.158Z,3.70
2022-09-24T08:58:56.243Z,8.10
2022-09-24T09:01:32.710Z,6.15
2022-09-24T09:04:12.027Z,3.55
2022-09-24T09:06:50.891Z,5.95
2022-09-24T09:09:21.492Z,6.03
2022-09-24T09:11:53.639Z,4.10
2022-09-24T09:14:30.614Z,5.25
2022-09-24T09:17:03.355Z,5.13
2022-09-24T09:19:35.416Z,4.30
2022-09-24T09:22:09.180Z,8.20
2022-09-24T09:24:43.138Z,4.72
2022-09-24T09:27:15.219Z,5.32
2022-09-24T09:29:48.075Z,4.53
2022-09-24T09:32:31.978Z,9.68
2022-09-24T09:35:11.352Z,7.00
2022-09-24T09:37:45.899Z,7.00
2022-09-24T09:40:31.944Z,6.15
2022-09-24T09:43:03.159Z,6.35
2022-09-24T09:45:37.204Z,7.57
2022-09-24T09:48:05.275Z,4.88
2022-09-24T09:50:38.293Z,5.57
2022-09-24T09:53:06.887Z,7.53
2022-09-24T09:55:37.512Z,7.50
2022-09-24T09:58:18.953Z,6.93
2022-09-24T10:00:49.700Z,9.50
2022-09-24T10:03:27.273Z,6.80
2022-09-24T10:05:57.190Z,5.85
2022-09-24T10:08:26.677Z,6.22
2022-09-24T10:10:56.403Z,5.75
2022-09-24T10:13:25.399Z,6.20
2022-09-24T10:15:56.375Z,5.70
2022-09-24T10:18:31.332Z,7.55
2022-09-24T10:21:02.681Z,7.03
2022-09-24T10:23:36.435Z,6.50
2022-09-24T10:26:05.881Z,6.30
2022-09-24T10:28:52.676Z,7.68
2022-09-24T10:31:24.108Z,9.02
2022-09-24T10:33:55.904Z,8.45
2022-09-24T10:36:25.385Z,8.32
2022-09-24T10:39:03.981Z,9.38
2022-09-24T10:41:32.808Z,9.50
2022-09-24T10:44:05.611Z,9.18
2022-09-24T10:46:52.000Z,8.93
2022-09-24T10:49:35.349Z,8.93
2022-09-24T10:52:13.102Z,7.28
2022-09-24T10:54:51.644Z,8.90
2022-09-24T10:57:29.858Z,7.30
2022-09-24T11:00:05.506Z,8.25
2022-09-24T11:03:08.038Z,8.98
2022-09-24T11:05:42.695Z,11.10
2022-09-24T11:08:21.918Z,9.27
2022-09-24T11:11:09.667Z,10.15
2022-09-24T11:13:50.423Z,8.45
2022-09-24T11:16:44.833Z,11.10
2022-09-24T11:19:30.273Z,9.60
2022-09-24T11:22:13.541Z,10.10
2022-09-24T11:24:51.257Z,7.22
2022-09-24T11:27:46.196Z,8.40
2022-09-24T11:30:17.197Z,9.00
2022-09-24T11:33:01.643Z,8.45
2022-09-24T11:36:00.399Z,7.35
2022-09-24T11:38:45.079Z,10.10
2022-09-24T11:41:27.950Z,8.13
2022-09-24T11:44:13.471Z,10.27
2022-09-24T11:46:51.917Z,9.40
2022-09-24T11:49:44.324Z,10.15
2022-09-24T11:52:20.059Z,8.77
2022-09-24T11:57:25.988Z,6.60
2022-09-24T11:59:59.280Z,9.48
2022-09-24T12:02:32.849Z,9.65
2022-09-24T12:05:07.008Z,10.23
2022-09-24T12:07:43.504Z,9.15
2022-09-24T12:10:26.047Z,20.45
2022-09-24T12:12:58.544Z,12.75
2022-09-24T12:15:31.740Z,15.02
2022-09-24T12:18:07.241Z,17.95
2022-09-24T12:20:44.481Z,6.60
2022-09-24T12:23:17.807Z,10.48
2022-09-24T12:25:48.051Z,9.63
2022-09-24T12:28:38.295Z,10.30
2022-09-24T12:31:31.153Z,8.35
2022-09-24T12:34:06.080Z,9.13
2022-09-24T12:36:56.026Z,11.67
2022-09-24T12:39:29.547Z,10.98
2022-09-24T12:42:49.806Z,11.13
2022-09-24T12:45:22.322Z,15.85
2022-09-24T12:47:53.218Z,9.70
2022-09-24T12:50:23.891Z,9.48
2022-09-24T12:52:52.320Z,8.25
2022-09-24T12:55:24.215Z,9.65
2022-09-24T12:57:56.074Z,9.57
2022-09-24T13:00:41.085Z,10.07
2022-09-24T13:03:24.355Z,9.57
2022-09-24T13:05:52.250Z,7.45
2022-09-24T13:08:27.152Z,10.07
2022-09-24T13:11:00.568Z,8.88
2022-09-24T13:13:31.812Z,10.95
2022-09-24T13:16:03.369Z,10.98
2022-09-24T13:18:34.552Z,8.98
2022-09-24T13:21:05.646Z,10.48
2022-09-24T13:23:48.554Z,8.63
2022-09-24T13:26:30.935Z,6.07
2022-09-24T13:29:01.512Z,11.75
2022-09-24T13:31:38.586Z,9.18
2022-09-24T13:34:17.246Z,9.57
2022-09-24T13:36:49.196Z,11.55
2022-09-24T13:39:22.054Z,9.05
2022-09-24T13:41:58.815Z,7.22
2022-09-24T13:44:32.007Z,9.48
2022-09-24T13:47:05.069Z,8.63
2022-09-24T13:49:34.825Z,7.65
2022-09-24T13:52:14.071Z,7.03
2022-09-24T13:54:50.365Z,6.95
2022-09-24T13:57:25.185Z,6.72
2022-09-24T14:00:05.847Z,10.13
2022-09-24T14:02:38.682Z,9.45
2022-09-24T14:05:15.989Z,9.52
2022-09-24T14:07:44.115Z,7.80
2022-09-24T14:10:15.602Z,12.77
2022-09-24T14:12:45.013Z,8.73
2022-09-24T14:15:16.779Z,8.65
2022-09-24T14:17:56.079Z,7.78
2022-09-24T14:20:24.602Z,6.95
2022-09-24T14:22:52.743Z,6.57
2022-09-24T14:25:26.399Z,7.30
2022-09-24T14:27:56.311Z,5.00
2022-09-24T14:30:26.100Z,7.00
2022-09-24T14:32:58.424Z,7.25
2022-09-24T14:35:31.318Z,8.23
2022-09-24T14:38:04.452Z,8.70
2022-09-24T14:40:41.292Z,6.80
2022-09-24T14:43:18.370Z,6.70
2022-09-24T14:45:47.482Z,8.00
2022-09-24T14:48:25.990Z,8.43
2022-09-24T14:50:53.870Z,6.68
2022-09-24T14:53:25.370Z,7.15
2022-09-24T14:55:53.588Z,8.20
2022-09-24T14:58:37.479Z,5.60
2022-09-24T15:01:13.809Z,7.15
2022-09-24T15:03:44.314Z,8.57
2022-09-24T15:06:20.641Z,6.35
2022-09-24T15:09:03.859Z,8.60
2022-09-24T15:11:34.278Z,6.50
2022-09-24T15:14:15.143Z,9.38
2022-09-24T15:16:44.160Z,8.73
2022-09-24T15:19:19.562Z,7.95
2022-09-24T15:21:48.951Z,8.50
2022-09-24T15:24:17.347Z,8.32
2022-09-24T15:26:48.164Z,6.68
2022-09-24T15:29:24.164Z,8.68
2022-09-24T15:31:52.231Z,9.05
2022-09-24T15:34:20.597Z,5.90
2022-09-24T15:36:49.495Z,13.18
2022-09-24T15:39:19.691Z,12.50
2022-09-24T15:41:47.828Z,20.77
2022-09-24T15:44:23.021Z,25.80
2022-09-24T15:46:52.096Z,18.33
2022-09-24T15:49:22.189Z,15.18
2022-09-24T15:51:51.738Z,12.80
2022-09-24T15:54:19.716Z,12.55
2022-09-24T15:56:52.253Z,9.35
2022-09-24T15:59:23.417Z,9.80
2022-09-24T16:01:54.949Z,11.63
2022-09-24T16:04:23.126Z,11.90
2022-09-24T16:06:51.242Z,14.07
2022-09-24T16:09:19.357Z,12.55
2022-09-24T16:11:47.855Z,12.52
2022-09-24T16:14:15.755Z,11.77
2022-09-24T16:16:45.021Z,11.27
2022-09-24T16:19:13.001Z,12.25
2022-09-24T16:21:41.144Z,9.15
2022-09-24T16:24:08.994Z,8.43
2022-09-24T16:26:37.382Z,12.13
2022-09-24T16:29:06.137Z,15.98
2022-09-24T16:31:34.394Z,40.80
2022-09-24T16:34:03.712Z,28.48
2022-09-24T16:36:31.622Z,17.88
2022-09-24T16:39:00.799Z,15.93
2022-09-24T16:41:34.269Z,14.48
2022-09-24T16:44:02.578Z,15.10
2022-09-24T16:46:30.677Z,17.73
2022-09-24T16:48:58.725Z,13.52
2022-09-24T16:51:28.005Z,14.20
2022-09-24T16:53:56.932Z,12.98
2022-09-24T16:56:25.594Z,12.70
2022-09-24T16:58:54.540Z,25.83
2022-09-24T17:01:23.140Z,22.67
2022-09-24T17:03:54.870Z,20.77
2022-09-24T17:06:25.837Z,20.25
2022-09-24T17:09:13.092Z,19.10
2022-09-24T17:11:42.545Z,16.77
2022-09-24T17:14:11.728Z,17.50
2022-09-24T17:16:40.046Z,16.77
2022-09-24T17:19:08.237Z,15.93
2022-09-24T17:21:37.027Z,18.50
2022-09-24T17:24:06.826Z,17.17
2022-09-24T17:26:35.087Z,15.65
2022-09-24T17:29:04.311Z,18.70
2022-09-24T17:31:32.799Z,29.13
2022-09-24T17:34:02.950Z,25.55
2022-09-24T17:36:33.255Z,20.88
2022-09-24T17:39:01.222Z,21.38
2022-09-24T17:41:31.288Z,23.90
2022-09-24T17:43:59.671Z,27.95
2022-09-24T17:46:29.591Z,20.83
2022-09-24T17:49:00.027Z,20.58
2022-09-24T17:51:32.721Z,18.23
2022-09-24T17:54:02.379Z,16.73
2022-09-24T17:56:33.131Z,16.13
2022-09-24T17:59:03.784Z,12.35
2022-09-24T18:01:35.876Z,12.23
2022-09-24T18:04:05.969Z,33.03
2022-09-24T18:06:36.785Z,21.55
2022-09-24T18:09:05.703Z,30.30
2022-09-24T18:11:39.106Z,20.10
2022-09-24T18:14:07.043Z,18.83
2022-09-24T18:16:35.441Z,18.85
2022-09-24T18:19:04.030Z,12.80
2022-09-24T18:21:32.000Z,14.45
2022-09-24T18:24:01.288Z,15.50
2022-09-24T18:26:32.398Z,13.45
2022-09-24T18:29:04.165Z,12.40
2022-09-24T18:31:32.926Z,9.68
2022-09-24T18:34:05.760Z,9.43
2022-09-24T18:36:35.471Z,8.10
2022-09-24T18:39:04.055Z,8.40
2022-09-24T18:41:33.055Z,7.97
2022-09-24T18:44:03.596Z,8.43
2022-09-24T18:46:33.054Z,10.45
2022-09-24T18:49:02.109Z,8.82
2022-09-24T18:51:32.104Z,8.73
2022-09-24T18:54:03.005Z,7.85
2022-09-24T18:56:31.504Z,8.02
2022-09-24T18:59:02.081Z,9.38
2022-09-24T19:01:34.255Z,8.73
2022-09-24T19:04:02.878Z,8.65
2022-09-24T19:06:31.727Z,9.50
2022-09-24T19:09:00.255Z,9.48
2022-09-24T19:11:30.612Z,8.70
2022-09-24T19:13:59.505Z,10.18
2022-09-24T19:16:27.586Z,13.18
2022-09-24T19:18:57.266Z,11.15
2022-09-24T19:21:25.305Z,8.05
2022-09-24T19:23:56.154Z,10.23
2022-09-24T19:26:26.477Z,10.73
2022-09-24T19:28:54.696Z,9.02
2022-09-24T19:31:24.953Z,9.70
2022-09-24T19:33:54.714Z,11.23
2022-09-24T19:36:24.123Z,14.75
2022-09-24T19:38:53.244Z,15.40
2022-09-24T19:41:25.118Z,11.88
2022-09-24T19:43:53.762Z,14.13
2022-09-24T19:46:23.561Z,13.93
2022-09-24T19:48:51.883Z,12.82
2022-09-24T19:51:22.029Z,13.68
2022-09-24T19:53:53.209Z,14.43
2022-09-24T19:56:22.508Z,14.50
2022-09-24T19:58:52.694Z,13.30
2022-09-24T20:01:22.358Z,12.38
2022-09-24T20:03:50.719Z,14.15
2022-09-24T20:06:20.415Z,13.68
2022-09-24T20:08:48.472Z,16.08
2022-09-24T20:11:20.830Z,12.60
2022-09-24T20:13:48.978Z,18.85
2022-09-24T20:16:19.653Z,12.73
2022-09-24T20:18:48.546Z,16.25
2022-09-24T20:21:17.261Z,14.93
2022-09-24T20:23:46.191Z,13.02
2022-09-24T20:26:32.080Z,14.57
2022-09-24T20:29:02.351Z,13.43
2022-09-24T20:31:30.817Z,15.30
2022-09-24T20:33:58.812Z,14.13
2022-09-24T20:36:26.677Z,16.88
2022-09-24T20:38:54.678Z,15.13
2022-09-24T20:41:24.830Z,14.63
2022-09-24T20:43:55.215Z,13.93
2022-09-24T20:46:26.560Z,14.90
2022-09-24T20:48:58.121Z,16.50
2022-09-24T20:51:27.298Z,13.85
2022-09-24T20:53:55.977Z,15.30
2022-09-24T20:56:24.017Z,14.13
2022-09-24T20:58:54.102Z,17.30
2022-09-24T21:01:24.297Z,14.75
2022-09-24T21:03:53.006Z,16.17
2022-09-24T21:06:22.980Z,17.02
2022-09-24T21:08:51.804Z,17.23
2022-09-24T21:11:21.161Z,17.92
2022-09-24T21:13:50.840Z,18.40
2022-09-24T21:16:21.002Z,14.68
2022-09-24T21:18:52.236Z,18.30
2022-09-24T21:21:22.367Z,20.23
2022-09-24T21:23:52.821Z,18.92
2022-09-24T21:26:22.915Z,17.45
2022-09-24T21:28:52.159Z,17.15
2022-09-24T21:31:26.344Z,19.60
2022-09-24T21:33:56.155Z,20.38
2022-09-24T21:36:26.104Z,21.42
2022-09-24T21:38:55.393Z,20.38
2022-09-24T21:41:24.369Z,19.60
2022-09-24T21:43:53.507Z,17.75
2022-09-24T21:46:21.563Z,18.40
2022-09-24T21:48:50.712Z,18.17
2022-09-24T21:51:21.786Z,19.00
2022-09-24T21:53:50.461Z,16.85
2022-09-24T21:56:19.104Z,14.85
2022-09-24T21:58:47.182Z,19.65
2022-09-24T22:01:17.984Z,16.10
2022-09-24T22:03:46.680Z,18.25
2022-09-24T22:06:15.106Z,19.25
2022-09-24T22:08:47.124Z,22.13
2022-09-24T22:11:15.742Z,16.35
2022-09-24T22:13:45.039Z,14.75
2022-09-24T22:16:13.230Z,16.17
2022-09-24T22:18:41.326Z,16.90
2022-09-24T22:21:11.778Z,14.55
2022-09-24T22:23:40.148Z,14.52
2022-09-24T22:26:10.903Z,14.25
2022-09-24T22:28:39.070Z,15.75
2022-09-24T22:31:09.068Z,20.02
2022-09-24T22:33:55.044Z,15.25
2022-09-24T22:36:23.652Z,14.88
2022-09-24T22:38:53.094Z,15.60
2022-09-24T22:41:22.444Z,14.85
2022-09-24T22:43:51.297Z,15.13
2022-09-24T22:46:20.441Z,17.10
2022-09-24T22:48:48.561Z,15.70
2022-09-24T22:51:16.595Z,16.25
2022-09-24T22:53:44.668Z,18.38
2022-09-24T22:56:14.564Z,18.45
2022-09-24T22:58:45.768Z,17.33
2022-09-24T23:01:15.915Z,17.10
2022-09-24T23:03:44.642Z,31.63
2022-09-24T23:06:12.978Z,15.45
2022-09-24T23:08:42.711Z,16.30
2022-09-24T23:11:12.567Z,17.85
2022-09-24T23:13:42.277Z,15.95
2022-09-24T23:16:14.696Z,17.25
2022-09-24T23:18:44.269Z,18.70
2022-09-24T23:21:15.784Z,20.45
2022-09-24T23:23:44.200Z,17.33
2022-09-24T23:26:16.439Z,19.40
2022-09-24T23:28:45.861Z,16.92
2022-09-24T23:31:16.143Z,16.45
2022-09-24T23:33:44.588Z,18.83
2022-09-24T23:36:14.595Z,18.50
2022-09-24T23:38:43.678Z,18.00
2022-09-24T23:41:13.346Z,18.23
2022-09-24T23:43:42.336Z,17.70
2022-09-24T23:46:11.308Z,17.10
2022-09-24T23:48:41.978Z,17.88
2022-09-24T23:51:10.870Z,18.95
2022-09-24T23:53:39.643Z,19.67
2022-09-24T23:56:08.657Z,21.35
2022-09-24T23:58:37.165Z,21.05
